createdAt,value
2018-08-12T00:00:17.096Z,6.80
2018-08-12T00:01:17.079Z,8.50
2018-08-12T00:02:17.122Z,7.10
2018-08-12T00:03:17.056Z,7.70
2018-08-12T00:04:17.047Z,6.00
2018-08-12T00:05:17.030Z,6.90
2018-08-12T00:06:17.018Z,7.00
2018-08-12T00:07:17.052Z,6.60
2018-08-12T00:08:17.002Z,6.80
2018-08-12T00:09:17.030Z,7.70
2018-08-12T00:10:16.978Z,5.50
2018-08-12T00:11:16.966Z,5.50
2018-08-12T00:12:16.950Z,5.90
2018-08-12T00:13:16.974Z,5.50
2018-08-12T00:14:16.926Z,5.40
2018-08-12T00:15:16.969Z,5.10
2018-08-12T00:16:16.911Z,5.80
2018-08-12T00:17:16.891Z,7.70
2018-08-12T00:18:16.905Z,5.90
2018-08-12T00:19:16.870Z,5.60
2018-08-12T00:20:16.883Z,7.20
2018-08-12T00:21:16.844Z,7.40
2018-08-12T00:22:16.831Z,7.80
2018-08-12T00:23:16.819Z,6.40
2018-08-12T00:24:16.845Z,7.20
2018-08-12T00:25:16.794Z,6.60
2018-08-12T00:26:16.781Z,7.30
2018-08-12T00:27:16.771Z,7.90
2018-08-12T00:28:16.762Z,6.50
2018-08-12T00:29:16.795Z,4.30
2018-08-12T00:30:16.749Z,6.40
2018-08-12T00:31:16.728Z,4.50
2018-08-12T00:32:16.716Z,5.10
2018-08-12T00:33:16.711Z,9.30
2018-08-12T00:34:16.747Z,5.30
2018-08-12T00:35:16.685Z,6.50
2018-08-12T00:36:16.681Z,6.70
2018-08-12T00:37:16.666Z,4.20
2018-08-12T00:38:16.652Z,4.50
2018-08-12T00:39:16.685Z,5.20
2018-08-12T00:40:16.632Z,5.30
2018-08-12T00:41:16.627Z,3.80
2018-08-12T00:42:16.621Z,6.70
2018-08-12T00:43:16.608Z,8.90
2018-08-12T00:44:16.616Z,5.90
2018-08-12T00:45:16.575Z,4.50
2018-08-12T00:46:16.560Z,5.10
2018-08-12T00:47:16.558Z,6.90
2018-08-12T00:48:16.536Z,6.00
2018-08-12T00:49:16.571Z,7.80
2018-08-12T00:50:16.514Z,7.50
2018-08-12T00:51:16.501Z,4.80
2018-08-12T00:52:16.501Z,4.40
2018-08-12T00:53:16.486Z,6.20
2018-08-12T00:54:25.905Z,4.30
2018-08-12T00:55:16.491Z,5.40
2018-08-12T00:56:16.443Z,7.40
2018-08-12T00:57:16.427Z,5.90
2018-08-12T00:58:16.423Z,4.50
2018-08-12T00:59:16.410Z,4.30
2018-08-12T01:00:16.437Z,8.80
2018-08-12T01:01:16.385Z,6.20
2018-08-12T01:02:16.376Z,7.70
2018-08-12T01:03:16.369Z,5.50
2018-08-12T01:04:16.362Z,4.80
2018-08-12T01:05:16.383Z,5.90
2018-08-12T01:06:16.373Z,6.30
2018-08-12T01:07:16.317Z,4.00
2018-08-12T01:08:16.320Z,7.70
2018-08-12T01:09:16.296Z,5.00
2018-08-12T01:10:16.292Z,6.60
2018-08-12T01:11:16.311Z,5.20
2018-08-12T01:12:16.259Z,4.90
2018-08-12T01:13:16.252Z,5.10
2018-08-12T01:14:16.267Z,4.40
2018-08-12T01:15:16.230Z,5.20
2018-08-12T01:16:16.243Z,8.00
2018-08-12T01:17:16.207Z,6.40
2018-08-12T01:18:16.199Z,5.30
2018-08-12T01:19:16.189Z,6.00
2018-08-12T01:20:16.219Z,6.00
2018-08-12T01:21:16.172Z,4.80
2018-08-12T01:22:16.167Z,6.90
2018-08-12T01:23:16.141Z,7.00
2018-08-12T01:24:16.133Z,7.50
2018-08-12T01:25:16.159Z,5.50
2018-08-12T01:26:16.105Z,8.00
2018-08-12T01:27:16.137Z,4.80
2018-08-12T01:28:16.092Z,4.60
2018-08-12T01:29:16.076Z,5.10
2018-08-12T01:30:23.916Z,5.60
2018-08-12T01:31:16.058Z,5.20
2018-08-12T01:32:18.954Z,8.40
2018-08-12T01:33:16.579Z,5.90
2018-08-12T01:34:16.048Z,7.40
2018-08-12T01:35:16.420Z,5.70
2018-08-12T01:36:16.602Z,6.20
2018-08-12T01:37:19.099Z,6.70
2018-08-12T01:38:16.553Z,7.70
2018-08-12T01:39:15.971Z,7.60
2018-08-12T01:40:15.957Z,5.90
2018-08-12T01:41:15.949Z,6.60
2018-08-12T01:42:15.933Z,7.50
2018-08-12T01:43:15.961Z,6.10
2018-08-12T01:44:15.915Z,7.90
2018-08-12T01:45:15.899Z,6.00
2018-08-12T01:46:15.884Z,5.80
2018-08-12T01:47:15.883Z,5.90
2018-08-12T01:48:24.974Z,5.60
2018-08-12T01:49:15.843Z,5.80
2018-08-12T01:50:15.840Z,6.10
2018-08-12T01:51:15.861Z,7.80
2018-08-12T01:52:15.806Z,4.50
2018-08-12T01:53:15.802Z,7.20
2018-08-12T01:54:15.815Z,5.80
2018-08-12T01:55:15.779Z,5.80
2018-08-12T01:56:15.773Z,7.70
2018-08-12T01:57:15.749Z,7.20
2018-08-12T01:58:15.795Z,6.30
2018-08-12T01:59:15.729Z,5.60
2018-08-12T02:00:15.722Z,7.50
2018-08-12T02:01:15.706Z,4.90
2018-08-12T02:02:15.698Z,5.30
2018-08-12T02:03:15.723Z,5.90
2018-08-12T02:04:15.674Z,6.90
2018-08-12T02:05:15.670Z,6.30
2018-08-12T02:06:15.651Z,5.80
2018-08-12T02:07:15.645Z,5.60
2018-08-12T02:08:15.663Z,5.60
2018-08-12T02:09:15.613Z,5.00
2018-08-12T02:10:15.609Z,5.20
2018-08-12T02:11:15.611Z,4.20
2018-08-12T02:12:15.621Z,6.80
2018-08-12T02:13:15.589Z,5.60
2018-08-12T02:14:15.557Z,4.80
2018-08-12T02:15:15.601Z,5.30
2018-08-12T02:16:15.535Z,6.90
2018-08-12T02:17:15.565Z,7.80
2018-08-12T02:18:15.528Z,6.50
2018-08-12T02:19:15.509Z,5.20
2018-08-12T02:20:15.505Z,5.60
2018-08-12T02:21:15.492Z,6.10
2018-08-12T02:22:15.515Z,5.40
2018-08-12T02:23:15.472Z,6.40
2018-08-12T02:24:15.460Z,7.70
2018-08-12T02:25:15.457Z,4.70
2018-08-12T02:26:15.463Z,4.60
2018-08-12T02:27:15.425Z,6.00
2018-08-12T02:28:15.421Z,5.50
2018-08-12T02:29:15.408Z,7.80
2018-08-12T02:30:24.521Z,3.90
2018-08-12T02:31:15.378Z,4.80
2018-08-12T02:32:15.370Z,5.10
2018-08-12T02:33:15.361Z,4.50
2018-08-12T02:34:15.343Z,5.30
2018-08-12T02:35:15.338Z,7.00
2018-08-12T02:36:15.373Z,6.50
2018-08-12T02:37:15.315Z,5.00
2018-08-12T02:38:15.304Z,3.80
2018-08-12T02:39:23.001Z,3.90
2018-08-12T02:40:15.277Z,5.40
2018-08-12T02:41:15.304Z,6.20
2018-08-12T02:42:15.281Z,5.80
2018-08-12T02:43:15.244Z,6.30
2018-08-12T02:44:15.230Z,5.40
2018-08-12T02:45:23.032Z,5.60
2018-08-12T02:46:15.213Z,6.40
2018-08-12T02:47:15.227Z,7.30
2018-08-12T02:48:15.184Z,6.30
2018-08-12T02:49:15.169Z,5.70
2018-08-12T02:50:15.157Z,4.40
2018-08-12T02:51:15.159Z,5.40
2018-08-12T02:52:15.161Z,5.30
2018-08-12T02:53:15.127Z,4.60
2018-08-12T02:54:15.115Z,5.50
2018-08-12T02:55:15.099Z,6.10
2018-08-12T02:56:15.091Z,6.00
2018-08-12T02:57:15.118Z,6.00
2018-08-12T02:58:15.105Z,8.00
2018-08-12T02:59:15.053Z,7.20
2018-08-12T03:00:15.045Z,6.20
2018-08-12T03:01:15.037Z,6.00
2018-08-12T03:02:15.065Z,6.20
2018-08-12T03:03:24.085Z,5.20
2018-08-12T03:04:15.009Z,6.20
2018-08-12T03:05:14.991Z,6.20
2018-08-12T03:06:14.977Z,5.10
2018-08-12T03:07:14.979Z,4.20
2018-08-12T03:08:14.993Z,8.30
2018-08-12T03:09:14.945Z,7.10
2018-08-12T03:10:14.937Z,6.60
2018-08-12T03:11:14.921Z,5.20
2018-08-12T03:12:22.614Z,6.10
2018-08-12T03:13:14.936Z,7.00
2018-08-12T03:14:14.897Z,7.70
2018-08-12T03:15:14.886Z,6.90
2018-08-12T03:16:14.877Z,4.80
2018-08-12T03:17:14.864Z,5.40
2018-08-12T03:18:14.890Z,7.10
2018-08-12T03:19:14.842Z,8.60
2018-08-12T03:20:14.826Z,8.50
2018-08-12T03:21:14.815Z,7.10
2018-08-12T03:22:14.854Z,6.20
2018-08-12T03:23:14.834Z,6.70
2018-08-12T03:24:22.644Z,5.80
2018-08-12T03:25:14.773Z,5.50
2018-08-12T03:26:14.763Z,8.10
2018-08-12T03:27:14.758Z,7.70
2018-08-12T03:28:14.771Z,7.40
2018-08-12T03:29:14.776Z,5.30
2018-08-12T03:30:14.842Z,6.70
2018-08-12T03:31:14.704Z,5.10
2018-08-12T03:32:14.696Z,6.40
2018-08-12T03:33:14.680Z,6.30
2018-08-12T03:34:14.717Z,6.40
2018-08-12T03:35:14.662Z,9.10
2018-08-12T03:36:14.645Z,5.80
2018-08-12T03:37:14.639Z,5.70
2018-08-12T03:38:14.634Z,7.50
2018-08-12T03:39:14.653Z,7.80
2018-08-12T03:40:14.601Z,8.20
2018-08-12T03:41:14.633Z,7.50
2018-08-12T03:42:14.575Z,6.60
2018-08-12T03:43:14.563Z,8.30
2018-08-12T03:44:14.557Z,6.00
2018-08-12T03:45:14.537Z,5.40
2018-08-12T03:46:14.575Z,8.00
2018-08-12T03:47:14.519Z,6.60
2018-08-12T03:48:22.167Z,6.30
2018-08-12T03:49:14.493Z,6.70
2018-08-12T03:50:14.531Z,8.80
2018-08-12T03:51:14.466Z,7.20
2018-08-12T03:52:14.469Z,7.40
2018-08-12T03:53:14.489Z,10.40
2018-08-12T03:54:14.443Z,7.50
2018-08-12T03:55:14.427Z,6.80
2018-08-12T03:56:14.424Z,6.60
2018-08-12T03:57:14.407Z,5.50
2018-08-12T03:58:14.436Z,4.70
2018-08-12T03:59:14.386Z,8.30
2018-08-12T04:00:14.371Z,6.50
2018-08-12T04:01:14.360Z,7.60
2018-08-12T04:02:14.376Z,5.70
2018-08-12T04:03:23.720Z,6.30
2018-08-12T04:04:14.351Z,7.10
2018-08-12T04:05:14.322Z,6.60
2018-08-12T04:06:22.220Z,9.10
2018-08-12T04:07:14.301Z,6.90
2018-08-12T04:08:14.290Z,8.30
2018-08-12T04:09:14.308Z,5.50
2018-08-12T04:10:14.272Z,5.70
2018-08-12T04:11:14.284Z,7.30
2018-08-12T04:12:22.264Z,6.90
2018-08-12T04:13:14.238Z,7.90
2018-08-12T04:14:14.218Z,8.10
2018-08-12T04:15:14.248Z,9.10
2018-08-12T04:16:14.204Z,5.90
2018-08-12T04:17:14.186Z,6.70
2018-08-12T04:18:14.182Z,6.90
2018-08-12T04:19:14.170Z,5.90
2018-08-12T04:20:14.187Z,8.80
2018-08-12T04:21:14.142Z,7.20
2018-08-12T04:22:14.163Z,6.30
2018-08-12T04:23:14.111Z,7.40
2018-08-12T04:24:14.099Z,8.90
2018-08-12T04:25:14.139Z,8.60
2018-08-12T04:26:14.074Z,8.40
2018-08-12T04:27:14.067Z,10.20
2018-08-12T04:28:14.062Z,8.60
2018-08-12T04:29:14.046Z,6.90
2018-08-12T04:30:14.065Z,7.50
2018-08-12T04:31:14.031Z,5.90
2018-08-12T04:32:14.087Z,7.50
2018-08-12T04:33:13.997Z,8.70
2018-08-12T04:34:13.993Z,10.30
2018-08-12T04:35:13.979Z,10.20
2018-08-12T04:36:13.965Z,9.20
2018-08-12T04:37:14.001Z,6.50
2018-08-12T04:38:13.943Z,8.40
2018-08-12T04:39:13.934Z,8.30
2018-08-12T04:40:13.942Z,7.80
2018-08-12T04:41:13.922Z,8.30
2018-08-12T04:42:13.948Z,8.20
2018-08-12T04:43:13.897Z,7.60
2018-08-12T04:44:13.877Z,7.50
2018-08-12T04:45:13.879Z,11.80
2018-08-12T04:46:13.861Z,8.40
2018-08-12T04:47:13.882Z,8.10
2018-08-12T04:48:21.798Z,9.20
2018-08-12T04:49:13.827Z,6.60
2018-08-12T04:50:13.822Z,8.80
2018-08-12T04:51:13.805Z,9.60
2018-08-12T04:52:13.831Z,9.90
2018-08-12T04:53:13.828Z,6.70
2018-08-12T04:54:21.349Z,10.80
2018-08-12T04:55:13.761Z,8.20
2018-08-12T04:56:13.751Z,8.90
2018-08-12T04:57:13.769Z,8.20
2018-08-12T04:58:13.723Z,7.10
2018-08-12T04:59:13.729Z,8.40
2018-08-12T05:00:13.701Z,8.50
2018-08-12T05:01:13.691Z,8.20
2018-08-12T05:02:13.717Z,7.20
2018-08-12T05:03:13.667Z,7.60
2018-08-12T05:04:13.655Z,9.00
2018-08-12T05:05:13.655Z,6.50
2018-08-12T05:06:13.625Z,8.30
2018-08-12T05:07:13.645Z,7.00
2018-08-12T05:08:13.607Z,7.70
2018-08-12T05:09:13.593Z,9.10
2018-08-12T05:10:13.588Z,8.40
2018-08-12T05:11:13.574Z,7.10
2018-08-12T05:12:13.582Z,7.90
2018-08-12T05:13:13.547Z,9.80
2018-08-12T05:14:13.561Z,8.10
2018-08-12T05:15:13.524Z,10.50
2018-08-12T05:16:13.517Z,11.70
2018-08-12T05:17:13.498Z,10.00
2018-08-12T05:18:13.482Z,8.70
2018-08-12T05:19:13.498Z,7.50
2018-08-12T05:20:13.464Z,8.80
2018-08-12T05:21:13.450Z,9.70
2018-08-12T05:22:13.440Z,5.80
2018-08-12T05:23:13.431Z,10.40
2018-08-12T05:24:13.440Z,8.90
2018-08-12T05:25:13.423Z,7.70
2018-08-12T05:26:13.396Z,7.30
2018-08-12T05:27:13.391Z,7.90
2018-08-12T05:28:13.365Z,7.60
2018-08-12T05:29:13.403Z,6.80
2018-08-12T05:30:13.350Z,8.60
2018-08-12T05:31:13.424Z,7.40
2018-08-12T05:32:13.335Z,8.40
2018-08-12T05:33:13.311Z,9.40
2018-08-12T05:34:13.348Z,6.70
2018-08-12T05:35:13.307Z,6.20
2018-08-12T05:36:13.418Z,8.60
2018-08-12T05:37:13.269Z,4.70
2018-08-12T05:38:13.267Z,8.20
2018-08-12T05:39:13.301Z,8.80
2018-08-12T05:40:13.237Z,6.60
2018-08-12T05:41:13.233Z,6.30
2018-08-12T05:42:13.224Z,5.90
2018-08-12T05:43:13.206Z,6.40
2018-08-12T05:44:13.229Z,6.60
2018-08-12T05:45:13.185Z,7.10
2018-08-12T05:46:13.178Z,5.50
2018-08-12T05:47:13.163Z,7.20
2018-08-12T05:48:13.187Z,5.80
2018-08-12T05:49:13.173Z,7.90
2018-08-12T05:50:13.129Z,9.80
2018-08-12T05:51:13.128Z,7.20
2018-08-12T05:52:13.107Z,7.20
2018-08-12T05:53:13.129Z,6.30
2018-08-12T05:54:13.079Z,6.40
2018-08-12T05:55:13.076Z,8.30
2018-08-12T05:56:13.057Z,5.60
2018-08-12T05:57:13.070Z,8.60
2018-08-12T05:58:13.106Z,6.70
2018-08-12T05:59:13.025Z,6.80
2018-08-12T06:00:13.067Z,5.70
2018-08-12T06:01:13.010Z,6.60
2018-08-12T06:02:12.991Z,6.20
2018-08-12T06:03:12.985Z,6.00
2018-08-12T06:04:12.967Z,6.50
2018-08-12T06:05:12.991Z,6.60
2018-08-12T06:06:12.962Z,5.60
2018-08-12T06:07:12.956Z,7.30
2018-08-12T06:08:12.921Z,6.10
2018-08-12T06:09:13.117Z,6.40
2018-08-12T06:10:12.939Z,5.90
2018-08-12T06:11:12.887Z,6.20
2018-08-12T06:12:13.264Z,5.50
2018-08-12T06:13:12.885Z,5.50
2018-08-12T06:14:12.853Z,7.20
2018-08-12T06:15:12.901Z,9.30
2018-08-12T06:16:12.832Z,7.20
2018-08-12T06:17:12.864Z,6.90
2018-08-12T06:18:12.819Z,5.30
2018-08-12T06:19:13.065Z,6.70
2018-08-12T06:20:12.794Z,7.50
2018-08-12T06:21:12.805Z,8.00
2018-08-12T06:22:12.816Z,5.80
2018-08-12T06:23:12.760Z,5.50
2018-08-12T06:24:12.753Z,6.80
2018-08-12T06:25:12.727Z,6.70
2018-08-12T06:26:12.717Z,5.00
2018-08-12T06:27:12.773Z,4.80
2018-08-12T06:28:12.689Z,6.90
2018-08-12T06:29:20.338Z,5.40
2018-08-12T06:30:12.675Z,6.40
2018-08-12T06:31:12.659Z,4.90
2018-08-12T06:32:12.698Z,5.00
2018-08-12T06:33:12.651Z,7.40
2018-08-12T06:34:12.630Z,4.60
2018-08-12T06:35:12.633Z,4.90
2018-08-12T06:36:12.608Z,5.90
2018-08-12T06:37:12.649Z,7.50
2018-08-12T06:38:20.392Z,4.70
2018-08-12T06:39:12.579Z,6.30
2018-08-12T06:40:12.574Z,6.30
2018-08-12T06:41:12.562Z,6.00
2018-08-12T06:42:12.590Z,4.50
2018-08-12T06:43:12.529Z,5.40
2018-08-12T06:44:12.536Z,3.50
2018-08-12T06:45:12.512Z,3.30
2018-08-12T06:46:12.525Z,5.10
2018-08-12T06:47:12.525Z,5.30
2018-08-12T06:48:12.532Z,5.60
2018-08-12T06:49:12.462Z,3.50
2018-08-12T06:50:12.473Z,4.10
2018-08-12T06:51:12.448Z,4.20
2018-08-12T06:52:12.460Z,3.80
2018-08-12T06:53:13.642Z,4.50
2018-08-12T06:54:12.402Z,4.80
2018-08-12T06:55:12.781Z,4.10
2018-08-12T06:56:12.502Z,5.30
2018-08-12T06:57:12.668Z,5.80
2018-08-12T06:58:12.464Z,4.70
2018-08-12T06:59:12.372Z,4.20
2018-08-12T07:00:12.334Z,2.70
2018-08-12T07:01:12.601Z,4.60
2018-08-12T07:02:13.460Z,4.70
2018-08-12T07:03:12.509Z,5.40
2018-08-12T07:04:12.307Z,4.90
2018-08-12T07:05:12.333Z,3.00
2018-08-12T07:06:12.388Z,3.40
2018-08-12T07:07:19.960Z,5.60
2018-08-12T07:08:12.344Z,5.40
2018-08-12T07:09:12.449Z,4.60
2018-08-12T07:10:12.304Z,4.10
2018-08-12T07:11:12.220Z,4.30
2018-08-12T07:12:12.223Z,3.80
2018-08-12T07:13:12.174Z,3.70
2018-08-12T07:14:12.267Z,4.30
2018-08-12T07:15:12.165Z,3.90
2018-08-12T07:16:12.140Z,3.90
2018-08-12T07:17:12.133Z,3.70
2018-08-12T07:18:12.131Z,4.50
2018-08-12T07:19:12.165Z,4.10
2018-08-12T07:20:12.107Z,3.20
2018-08-12T07:21:12.088Z,3.20
2018-08-12T07:22:12.078Z,3.60
2018-08-12T07:23:12.065Z,3.90
2018-08-12T07:24:12.097Z,2.90
2018-08-12T07:25:12.061Z,3.00
2018-08-12T07:26:12.040Z,5.30
2018-08-12T07:27:12.019Z,5.60
2018-08-12T07:28:12.007Z,2.20
2018-08-12T07:29:12.025Z,3.50
2018-08-12T07:30:11.988Z,3.70
2018-08-12T07:31:12.007Z,3.10
2018-08-12T07:32:11.969Z,3.80
2018-08-12T07:33:11.944Z,3.90
2018-08-12T07:34:11.939Z,3.80
2018-08-12T07:35:11.927Z,2.80
2018-08-12T07:36:11.951Z,3.10
2018-08-12T07:37:11.903Z,5.10
2018-08-12T07:38:19.907Z,5.20
2018-08-12T07:39:11.933Z,5.40
2018-08-12T07:40:11.881Z,3.00
2018-08-12T07:41:11.868Z,2.80
2018-08-12T07:42:11.853Z,3.10
2018-08-12T07:43:11.843Z,4.40
2018-08-12T07:44:11.873Z,3.10
2018-08-12T07:45:11.823Z,4.10
2018-08-12T07:46:11.809Z,4.30
2018-08-12T07:47:11.811Z,2.60
2018-08-12T07:48:11.792Z,3.90
2018-08-12T07:49:11.806Z,4.40
2018-08-12T07:50:11.775Z,4.20
2018-08-12T07:51:11.792Z,3.00
2018-08-12T07:52:11.745Z,4.70
2018-08-12T07:53:19.448Z,2.60
2018-08-12T07:54:11.721Z,5.50
2018-08-12T07:55:11.717Z,11.00
2018-08-12T07:56:11.752Z,5.60
2018-08-12T07:57:11.690Z,5.30
2018-08-12T07:58:11.685Z,3.10
2018-08-12T07:59:11.668Z,3.10
2018-08-12T08:00:11.656Z,4.10
2018-08-12T08:01:11.674Z,5.00
2018-08-12T08:02:19.495Z,3.10
2018-08-12T08:03:11.622Z,3.00
2018-08-12T08:04:11.615Z,4.10
2018-08-12T08:05:20.038Z,6.00
2018-08-12T08:06:11.601Z,4.60
2018-08-12T08:07:11.571Z,4.00
2018-08-12T08:08:11.589Z,4.20
2018-08-12T08:09:11.541Z,5.00
2018-08-12T08:10:11.528Z,3.20
2018-08-12T08:11:11.564Z,5.30
2018-08-12T08:12:11.521Z,3.60
2018-08-12T08:13:11.542Z,4.80
2018-08-12T08:14:11.546Z,5.00
2018-08-12T08:15:11.470Z,4.50
2018-08-12T08:16:11.463Z,5.80
2018-08-12T08:17:19.033Z,4.20
2018-08-12T08:18:11.443Z,5.50
2018-08-12T08:19:11.472Z,3.90
2018-08-12T08:20:11.434Z,4.50
2018-08-12T08:21:11.462Z,4.40
2018-08-12T08:22:11.400Z,4.10
2018-08-12T08:23:11.415Z,3.80
2018-08-12T08:24:11.383Z,2.30
2018-08-12T08:25:11.456Z,3.10
2018-08-12T08:26:11.451Z,3.90
2018-08-12T08:27:11.345Z,2.60
2018-08-12T08:28:11.335Z,3.60
2018-08-12T08:29:11.340Z,6.10
2018-08-12T08:30:11.308Z,4.50
2018-08-12T08:31:11.345Z,2.40
2018-08-12T08:32:11.330Z,2.60
2018-08-12T08:33:11.280Z,5.50
2018-08-12T08:34:11.323Z,3.80
2018-08-12T08:35:11.248Z,2.40
2018-08-12T08:36:11.232Z,4.20
2018-08-12T08:37:11.267Z,2.40
2018-08-12T08:38:11.298Z,5.10
2018-08-12T08:39:11.203Z,4.30
2018-08-12T08:40:11.215Z,4.00
2018-08-12T08:41:11.177Z,4.30
2018-08-12T08:42:11.219Z,3.70
2018-08-12T08:43:11.159Z,2.90
2018-08-12T08:44:19.069Z,3.60
2018-08-12T08:45:11.138Z,2.20
2018-08-12T08:46:11.126Z,3.50
2018-08-12T08:47:20.616Z,2.80
2018-08-12T08:48:11.144Z,3.80
2018-08-12T08:49:11.090Z,3.60
2018-08-12T08:50:11.074Z,4.90
2018-08-12T08:51:11.078Z,3.20
2018-08-12T08:52:11.073Z,3.60
2018-08-12T08:53:11.086Z,2.70
2018-08-12T08:54:11.029Z,3.20
2018-08-12T08:55:11.027Z,3.60
2018-08-12T08:56:11.041Z,3.90
2018-08-12T08:57:10.999Z,4.70
2018-08-12T08:58:11.034Z,4.30
2018-08-12T08:59:10.977Z,4.10
2018-08-12T09:00:10.975Z,3.60
2018-08-12T09:01:10.987Z,2.80
2018-08-12T09:02:10.945Z,3.50
2018-08-12T09:03:10.976Z,3.10
2018-08-12T09:04:10.988Z,3.80
2018-08-12T09:05:10.918Z,3.50
2018-08-12T09:06:10.926Z,4.10
2018-08-12T09:07:10.899Z,3.80
2018-08-12T09:08:11.062Z,2.80
2018-08-12T09:09:11.186Z,2.30
2018-08-12T09:10:10.853Z,5.00
2018-08-12T09:11:10.853Z,3.90
2018-08-12T09:12:10.839Z,3.80
2018-08-12T09:13:10.824Z,4.70
2018-08-12T09:14:10.850Z,3.20
2018-08-12T09:15:10.853Z,3.40
2018-08-12T09:16:10.805Z,4.70
2018-08-12T09:17:10.783Z,4.90
2018-08-12T09:18:10.801Z,4.30
2018-08-12T09:19:10.765Z,3.70
2018-08-12T09:20:10.787Z,6.70
2018-08-12T09:21:10.741Z,5.30
2018-08-12T09:22:10.727Z,3.30
2018-08-12T09:23:10.721Z,3.10
2018-08-12T09:24:10.695Z,4.30
2018-08-12T09:25:10.731Z,3.40
2018-08-12T09:26:10.685Z,4.10
2018-08-12T09:27:10.793Z,1.70
2018-08-12T09:28:10.661Z,2.60
2018-08-12T09:29:10.673Z,2.80
2018-08-12T09:30:10.823Z,3.60
2018-08-12T09:31:10.617Z,4.00
2018-08-12T09:32:18.645Z,4.00
2018-08-12T09:33:10.589Z,4.10
2018-08-12T09:34:10.578Z,3.70
2018-08-12T09:35:10.622Z,4.20
2018-08-12T09:36:10.564Z,2.80
2018-08-12T09:37:10.549Z,3.10
2018-08-12T09:38:10.550Z,3.80
2018-08-12T09:39:10.521Z,2.70
2018-08-12T09:40:10.550Z,3.80
2018-08-12T09:41:10.554Z,3.50
2018-08-12T09:42:10.497Z,3.00
2018-08-12T09:43:10.568Z,3.40
2018-08-12T09:44:10.466Z,2.00
2018-08-12T09:45:10.475Z,3.30
2018-08-12T09:46:10.530Z,2.30
2018-08-12T09:47:10.562Z,4.30
2018-08-12T09:48:10.429Z,7.60
2018-08-12T09:49:10.437Z,2.70
2018-08-12T09:50:10.406Z,2.90
2018-08-12T09:51:10.441Z,3.10
2018-08-12T09:52:10.382Z,1.70
2018-08-12T09:53:10.408Z,3.30
2018-08-12T09:54:10.370Z,3.60
2018-08-12T09:55:10.367Z,3.80
2018-08-12T09:56:10.347Z,2.90
2018-08-12T09:57:10.342Z,2.60
2018-08-12T09:58:10.384Z,3.50
2018-08-12T09:59:10.309Z,2.60
2018-08-12T10:00:10.333Z,3.00
2018-08-12T10:01:10.317Z,2.20
2018-08-12T10:02:10.466Z,4.70
2018-08-12T10:03:10.346Z,2.20
2018-08-12T10:04:10.436Z,2.80
2018-08-12T10:05:10.283Z,2.30
2018-08-12T10:06:10.313Z,2.80
2018-08-12T10:07:10.292Z,2.60
2018-08-12T10:08:10.321Z,3.20
2018-08-12T10:09:10.277Z,3.00
2018-08-12T10:10:10.287Z,1.60
2018-08-12T10:11:18.174Z,3.70
2018-08-12T10:12:10.187Z,4.10
2018-08-12T10:13:10.225Z,1.80
2018-08-12T10:14:10.159Z,1.80
2018-08-12T10:15:10.156Z,1.80
2018-08-12T10:16:10.165Z,2.90
2018-08-12T10:17:10.133Z,2.20
2018-08-12T10:18:10.166Z,3.00
2018-08-12T10:19:10.116Z,1.70
2018-08-12T10:20:10.101Z,1.60
2018-08-12T10:21:10.083Z,2.10
2018-08-12T10:22:10.085Z,1.20
2018-08-12T10:23:10.105Z,2.90
2018-08-12T10:24:10.099Z,3.40
2018-08-12T10:25:10.051Z,1.50
2018-08-12T10:26:10.062Z,2.40
2018-08-12T10:27:10.028Z,2.60
2018-08-12T10:28:10.074Z,3.30
2018-08-12T10:29:17.774Z,4.70
2018-08-12T10:30:09.998Z,4.40
2018-08-12T10:31:09.991Z,2.20
2018-08-12T10:32:09.983Z,1.80
2018-08-12T10:33:10.013Z,2.30
2018-08-12T10:34:09.992Z,1.90
2018-08-12T10:35:09.956Z,2.60
2018-08-12T10:36:09.917Z,1.50
2018-08-12T10:37:09.929Z,2.30
2018-08-12T10:38:09.941Z,2.20
2018-08-12T10:39:09.918Z,2.90
2018-08-12T10:40:09.877Z,5.40
2018-08-12T10:41:19.288Z,4.10
2018-08-12T10:42:09.866Z,3.80
2018-08-12T10:43:09.844Z,3.20
2018-08-12T10:44:18.377Z,1.90
2018-08-12T10:45:09.827Z,2.80
2018-08-12T10:46:09.817Z,3.50
2018-08-12T10:47:09.823Z,2.50
2018-08-12T10:48:09.796Z,1.20
2018-08-12T10:49:09.827Z,3.30
2018-08-12T10:50:17.322Z,2.70
2018-08-12T10:51:09.767Z,2.00
2018-08-12T10:52:09.787Z,1.20
2018-08-12T10:53:17.354Z,1.30
2018-08-12T10:54:09.771Z,1.80
2018-08-12T10:55:09.723Z,2.20
2018-08-12T10:56:09.717Z,2.40
2018-08-12T10:57:09.706Z,1.50
2018-08-12T10:58:09.737Z,2.70
2018-08-12T10:59:09.699Z,3.10
2018-08-12T11:00:09.715Z,2.70
2018-08-12T11:01:09.697Z,1.70
2018-08-12T11:02:09.673Z,1.10
2018-08-12T11:03:09.717Z,1.90
2018-08-12T11:04:09.745Z,2.30
2018-08-12T11:05:17.405Z,3.40
2018-08-12T11:06:09.625Z,2.10
2018-08-12T11:07:09.614Z,2.50
2018-08-12T11:08:20.479Z,2.70
2018-08-12T11:09:09.649Z,3.00
2018-08-12T11:10:09.579Z,2.50
2018-08-12T11:11:09.588Z,4.30
2018-08-12T11:12:09.563Z,2.90
2018-08-12T11:13:09.587Z,4.60
2018-08-12T11:14:09.572Z,4.50
2018-08-12T11:15:09.889Z,5.20
2018-08-12T11:16:09.515Z,5.40
2018-08-12T11:17:09.505Z,5.80
2018-08-12T11:18:09.493Z,4.50
2018-08-12T11:19:09.512Z,4.40
2018-08-12T11:20:09.471Z,3.80
2018-08-12T11:21:09.465Z,4.20
2018-08-12T11:22:09.447Z,4.90
2018-08-12T11:23:09.431Z,8.20
2018-08-12T11:24:09.492Z,4.00
2018-08-12T11:25:09.407Z,5.40
2018-08-12T11:26:09.441Z,4.40
2018-08-12T11:27:09.438Z,3.70
2018-08-12T11:28:09.390Z,3.70
2018-08-12T11:29:09.362Z,4.20
2018-08-12T11:30:09.364Z,5.00
2018-08-12T11:31:09.470Z,6.90
2018-08-12T11:32:09.337Z,3.90
2018-08-12T11:33:09.320Z,4.70
2018-08-12T11:34:09.300Z,4.50
2018-08-12T11:35:09.312Z,4.70
2018-08-12T11:36:09.314Z,5.90
2018-08-12T11:37:09.273Z,4.90
2018-08-12T11:38:09.311Z,5.20
2018-08-12T11:39:09.251Z,5.10
2018-08-12T11:40:09.243Z,5.30
2018-08-12T11:41:09.281Z,5.40
2018-08-12T11:42:09.239Z,4.50
2018-08-12T11:43:09.201Z,4.30
2018-08-12T11:44:09.281Z,6.50
2018-08-12T11:45:09.263Z,4.30
2018-08-12T11:46:09.200Z,5.90
2018-08-12T11:47:17.018Z,5.00
2018-08-12T11:48:09.287Z,4.50
2018-08-12T11:49:09.135Z,5.40
2018-08-12T11:50:09.149Z,5.50
2018-08-12T11:51:09.121Z,6.60
2018-08-12T11:52:09.105Z,3.30
2018-08-12T11:53:18.520Z,3.60
2018-08-12T11:54:09.089Z,3.80
2018-08-12T11:55:09.097Z,6.00
2018-08-12T11:56:09.075Z,5.80
2018-08-12T11:57:09.098Z,5.20
2018-08-12T11:58:09.050Z,4.90
2018-08-12T11:59:18.027Z,5.80
2018-08-12T12:00:09.045Z,4.60
2018-08-12T12:01:09.027Z,5.90
2018-08-12T12:02:09.061Z,5.40
2018-08-12T12:03:08.999Z,5.10
2018-08-12T12:04:08.987Z,6.80
2018-08-12T12:05:09.133Z,6.50
2018-08-12T12:06:08.962Z,4.70
2018-08-12T12:07:08.947Z,6.20
2018-08-12T12:08:08.971Z,6.20
2018-08-12T12:09:08.922Z,5.40
2018-08-12T12:10:08.966Z,6.20
2018-08-12T12:11:08.925Z,6.80
2018-08-12T12:12:08.976Z,5.50
2018-08-12T12:13:08.918Z,4.70
2018-08-12T12:14:08.863Z,5.60
2018-08-12T12:15:08.913Z,5.20
2018-08-12T12:16:08.871Z,6.70
2018-08-12T12:17:08.828Z,5.80
2018-08-12T12:18:08.870Z,4.80
2018-08-12T12:19:08.810Z,7.10
2018-08-12T12:20:08.799Z,4.80
2018-08-12T12:21:08.824Z,8.70
2018-08-12T12:22:08.783Z,6.60
2018-08-12T12:23:08.817Z,4.20
2018-08-12T12:24:08.764Z,6.00
2018-08-12T12:25:08.757Z,5.70
2018-08-12T12:26:08.839Z,5.10
2018-08-12T12:27:08.778Z,6.10
2018-08-12T12:28:08.721Z,6.20
2018-08-12T12:29:08.703Z,5.10
2018-08-12T12:30:08.705Z,5.60
2018-08-12T12:31:08.713Z,7.50
2018-08-12T12:32:08.675Z,5.50
2018-08-12T12:33:08.688Z,6.20
2018-08-12T12:34:08.647Z,4.90
2018-08-12T12:35:08.648Z,5.60
2018-08-12T12:36:08.657Z,4.90
2018-08-12T12:37:08.619Z,5.60
2018-08-12T12:38:08.604Z,5.30
2018-08-12T12:39:08.601Z,7.30
2018-08-12T12:40:08.612Z,5.90
2018-08-12T12:41:18.095Z,5.30
2018-08-12T12:42:08.563Z,5.80
2018-08-12T12:43:08.557Z,6.10
2018-08-12T12:44:08.587Z,5.40
2018-08-12T12:45:08.548Z,7.10
2018-08-12T12:46:08.527Z,5.90
2018-08-12T12:47:17.096Z,7.00
2018-08-12T12:48:08.603Z,5.30
2018-08-12T12:49:11.625Z,17.10
2018-08-12T12:50:08.540Z,8.20
2018-08-12T12:51:08.463Z,7.40
2018-08-12T12:52:08.453Z,6.60
2018-08-12T12:53:08.459Z,5.60
2018-08-12T12:54:08.431Z,6.60
2018-08-12T12:55:08.414Z,8.60
2018-08-12T12:56:18.721Z,5.80
2018-08-12T12:57:08.452Z,6.60
2018-08-12T12:58:08.522Z,6.90
2018-08-12T12:59:08.369Z,5.60
2018-08-12T13:00:08.395Z,5.00
2018-08-12T13:01:08.349Z,6.60
2018-08-12T13:02:17.677Z,5.90
2018-08-12T13:03:08.343Z,6.80
2018-08-12T13:04:08.319Z,5.30
2018-08-12T13:05:15.318Z,6.60
2018-08-12T13:06:08.337Z,6.80
2018-08-12T13:07:08.275Z,6.60
2018-08-12T13:08:17.231Z,5.20
2018-08-12T13:09:08.265Z,6.80
2018-08-12T13:10:08.249Z,5.90
2018-08-12T13:11:17.781Z,6.10
2018-08-12T13:12:08.263Z,6.20
2018-08-12T13:13:08.224Z,4.80
2018-08-12T13:14:15.810Z,4.60
2018-08-12T13:15:08.201Z,7.10
2018-08-12T13:16:08.180Z,4.30
2018-08-12T13:17:17.357Z,3.50
2018-08-12T13:18:08.169Z,5.00